Barrancas, Argentina
Current Conditions -  °F | °C
As of 5:00 PM on Monday 26 Jan 2015 (Local Time) from SAAR Reporting Station
Broken Clouds Broken Clouds  
Wind Chill: 33°   Ceiling: 20000
Heat Index: 38°   Visibility: 6mi
Dew Point: 23°   Wind: 9mph
Humidity: 55%   Direction: 20°NNE
Pressure: 29.71"   Gusts: NA
Location:  32.23°S, 60.98°W
Report Text: SAAR 262000Z 02008KT 9999 FEW042CB SCT045BKN200 33/23 Q1006
Loading
Personal Weather Stations






























Interactive Weather Map New forecast layout! Learn more

10-Day Weather Forecast

Advertisements
Track Severe Weather on mobile